sensor_id;sensor_type;location;lat;lon;timestamp;temperature;humidity
1461;DHT22;724;49.910;12.530;2024-02-26T00:01:29;-0.50;23.00
1461;DHT22;724;49.910;12.530;2024-02-26T00:03:58;-0.60;1.00
1461;DHT22;724;49.910;12.530;2024-02-26T00:06:25;-0.60;1.00
1461;DHT22;724;49.910;12.530;2024-02-26T00:08:52;-0.60;1.00
1461;DHT22;724;49.910;12.530;2024-02-26T00:11:20;-0.60;39.50
1461;DHT22;724;49.910;12.530;2024-02-26T00:13:47;-0.60;72.20
1461;DHT22;724;49.910;12.530;2024-02-26T00:16:14;-0.60;85.00
1461;DHT22;724;49.910;12.530;2024-02-26T00:18:40;-0.60;99.90
1461;DHT22;724;49.910;12.530;2024-02-26T00:21:07;-0.50;99.90
1461;DHT22;724;49.910;12.530;2024-02-26T00:23:34;-0.50;99.90
1461;DHT22;724;49.910;12.530;2024-02-26T00:26:00;-0.60;1.00
1461;DHT22;724;49.910;12.530;2024-02-26T00:28:28;-0.60;1.00
1461;DHT22;724;49.910;12.530;2024-02-26T00:30:55;-0.60;99.90
1461;DHT22;724;49.910;12.530;2024-02-26T00:33:22;-0.60;99.90
1461;DHT22;724;49.910;12.530;2024-02-26T00:35:49;-0.60;99.90
1461;DHT22;724;49.910;12.530;2024-02-26T00:38:16;-0.60;99.90
1461;DHT22;724;49.910;12.530;2024-02-26T00:40:42;-0.60;1.00
1461;DHT22;724;49.910;12.530;2024-02-26T00:43:09;-0.60;99.90
1461;DHT22;724;49.910;12.530;2024-02-26T00:45:37;-0.60;1.00
1461;DHT22;724;49.910;12.530;2024-02-26T00:48:05;-0.60;1.00
1461;DHT22;724;49.910;12.530;2024-02-26T00:50:32;-0.50;1.00
1461;DHT22;724;49.910;12.530;2024-02-26T00:52:59;-0.50;1.00
1461;DHT22;724;49.910;12.530;2024-02-26T00:55:26;-0.60;1.00
1461;DHT22;724;49.910;12.530;2024-02-26T00:57:53;-0.50;1.00
1461;DHT22;724;49.910;12.530;2024-02-26T01:00:20;-0.60;1.00
1461;DHT22;724;49.910;12.530;2024-02-26T01:02:48;-0.60;1.00
1461;DHT22;724;49.910;12.530;2024-02-26T01:05:15;-0.60;1.00
1461;DHT22;724;49.910;12.530;2024-02-26T01:07:42;-0.60;1.00
1461;DHT22;724;49.910;12.530;2024-02-26T01:10:09;-0.60;1.00
1461;DHT22;724;49.910;12.530;2024-02-26T01:12:36;-0.50;68.00
1461;DHT22;724;49.910;12.530;2024-02-26T01:15:03;-0.60;1.00
1461;DHT22;724;49.910;12.530;2024-02-26T01:17:30;-0.70;1.00
1461;DHT22;724;49.910;12.530;2024-02-26T01:19:58;-0.80;1.00
1461;DHT22;724;49.910;12.530;2024-02-26T01:22:25;-0.90;1.00
1461;DHT22;724;49.910;12.530;2024-02-26T01:24:52;-0.90;99.90
1461;DHT22;724;49.910;12.530;2024-02-26T01:27:19;-0.90;99.90
1461;DHT22;724;49.910;12.530;2024-02-26T01:29:45;-0.80;1.00
1461;DHT22;724;49.910;12.530;2024-02-26T01:32:12;-0.80;1.00
1461;DHT22;724;49.910;12.530;2024-02-26T01:34:39;-0.90;1.00
1461;DHT22;724;49.910;12.530;2024-02-26T01:37:07;-1.00;1.00
1461;DHT22;724;49.910;12.530;2024-02-26T01:39:34;-1.10;99.90
1461;DHT22;724;49.910;12.530;2024-02-26T01:42:01;-1.00;99.90
1461;DHT22;724;49.910;12.530;2024-02-26T01:44:28;-0.90;1.00
1461;DHT22;724;49.910;12.530;2024-02-26T01:46:54;-0.80;1.00
1461;DHT22;724;49.910;12.530;2024-02-26T01:49:21;-0.80;1.00
1461;DHT22;724;49.910;12.530;2024-02-26T01:51:48;-0.80;1.00
1461;DHT22;724;49.910;12.530;2024-02-26T01:54:17;-0.80;29.70
1461;DHT22;724;49.910;12.530;2024-02-26T01:56:44;-0.80;91.20
1461;DHT22;724;49.910;12.530;2024-02-26T01:59:11;-0.80;99.90
1461;DHT22;724;49.910;12.530;2024-02-26T02:01:40;-0.80;99.90
1461;DHT22;724;49.910;12.530;2024-02-26T02:04:09;-0.80;99.90
1461;DHT22;724;49.910;12.530;2024-02-26T02:06:36;-0.80;99.90
1461;DHT22;724;49.910;12.530;2024-02-26T02:09:04;-0.90;99.90
1461;DHT22;724;49.910;12.530;2024-02-26T02:11:34;-0.90;99.90
1461;DHT22;724;49.910;12.530;2024-02-26T02:14:01;-0.60;99.90
1461;DHT22;724;49.910;12.530;2024-02-26T02:16:28;-0.40;99.90
1461;DHT22;724;49.910;12.530;2024-02-26T02:18:54;-0.50;99.90
1461;DHT22;724;49.910;12.530;2024-02-26T02:21:22;-0.50;99.90
1461;DHT22;724;49.910;12.530;2024-02-26T02:23:49;-0.30;99.90
1461;DHT22;724;49.910;12.530;2024-02-26T02:26:16;-0.20;99.90
1461;DHT22;724;49.910;12.530;2024-02-26T02:28:44;0.00;99.90
1461;DHT22;724;49.910;12.530;2024-02-26T02:31:12;-0.10;99.90
1461;DHT22;724;49.910;12.530;2024-02-26T02:33:39;-0.10;99.90
1461;DHT22;724;49.910;12.530;2024-02-26T02:36:06;-0.40;99.90
1461;DHT22;724;49.910;12.530;2024-02-26T02:38:36;-0.60;99.90
1461;DHT22;724;49.910;12.530;2024-02-26T02:41:04;-0.80;99.90
1461;DHT22;724;49.910;12.530;2024-02-26T02:43:30;-1.20;99.90
1461;DHT22;724;49.910;12.530;2024-02-26T02:45:57;-1.20;99.90
1461;DHT22;724;49.910;12.530;2024-02-26T02:48:24;-1.20;99.90
1461;DHT22;724;49.910;12.530;2024-02-26T02:50:51;-1.20;99.90
1461;DHT22;724;49.910;12.530;2024-02-26T02:53:17;-1.10;99.90
1461;DHT22;724;49.910;12.530;2024-02-26T02:55:46;-1.10;99.90
1461;DHT22;724;49.910;12.530;2024-02-26T02:58:12;-1.10;99.90
1461;DHT22;724;49.910;12.530;2024-02-26T03:00:39;-1.00;99.90
1461;DHT22;724;49.910;12.530;2024-02-26T03:03:06;-1.10;99.90
1461;DHT22;724;49.910;12.530;2024-02-26T03:05:32;-1.10;99.90
1461;DHT22;724;49.910;12.530;2024-02-26T03:07:59;-1.10;99.90
1461;DHT22;724;49.910;12.530;2024-02-26T03:10:26;-1.10;99.90
1461;DHT22;724;49.910;12.530;2024-02-26T03:12:54;-1.10;99.90
1461;DHT22;724;49.910;12.530;2024-02-26T03:15:21;-1.00;99.90
1461;DHT22;724;49.910;12.530;2024-02-26T03:17:48;-1.00;99.90
1461;DHT22;724;49.910;12.530;2024-02-26T03:20:15;-0.90;99.90
1461;DHT22;724;49.910;12.530;2024-02-26T03:22:44;-0.70;99.90
1461;DHT22;724;49.910;12.530;2024-02-26T03:25:11;-0.50;99.90
1461;DHT22;724;49.910;12.530;2024-02-26T03:27:38;-0.70;99.90
1461;DHT22;724;49.910;12.530;2024-02-26T03:30:07;-0.80;99.90
1461;DHT22;724;49.910;12.530;2024-02-26T03:32:34;-0.90;99.90
1461;DHT22;724;49.910;12.530;2024-02-26T03:35:00;-1.00;99.90
1461;DHT22;724;49.910;12.530;2024-02-26T03:37:28;-0.90;99.90
1461;DHT22;724;49.910;12.530;2024-02-26T03:39:54;-0.90;99.90
1461;DHT22;724;49.910;12.530;2024-02-26T03:42:22;-1.00;99.90
1461;DHT22;724;49.910;12.530;2024-02-26T03:44:49;-1.00;99.90
1461;DHT22;724;49.910;12.530;2024-02-26T03:47:17;-1.00;99.90
1461;DHT22;724;49.910;12.530;2024-02-26T03:49:44;-1.00;99.90
1461;DHT22;724;49.910;12.530;2024-02-26T03:52:11;-1.00;99.90
1461;DHT22;724;49.910;12.530;2024-02-26T03:54:37;-1.00;99.90
1461;DHT22;724;49.910;12.530;2024-02-26T03:57:04;-0.90;99.90
1461;DHT22;724;49.910;12.530;2024-02-26T03:59:31;-1.00;99.90
1461;DHT22;724;49.910;12.530;2024-02-26T04:01:58;-1.00;99.90
1461;DHT22;724;49.910;12.530;2024-02-26T04:04:28;-1.10;99.90
1461;DHT22;724;49.910;12.530;2024-02-26T04:06:55;-1.10;99.90
1461;DHT22;724;49.910;12.530;2024-02-26T04:09:22;-1.10;99.90
1461;DHT22;724;49.910;12.530;2024-02-26T04:11:48;-1.10;99.90
1461;DHT22;724;49.910;12.530;2024-02-26T04:14:15;-1.00;99.90
1461;DHT22;724;49.910;12.530;2024-02-26T04:16:42;-0.90;99.90
1461;DHT22;724;49.910;12.530;2024-02-26T04:19:08;-0.70;99.90
1461;DHT22;724;49.910;12.530;2024-02-26T04:21:37;-0.60;99.90
1461;DHT22;724;49.910;12.530;2024-02-26T04:24:04;-0.50;99.90
1461;DHT22;724;49.910;12.530;2024-02-26T04:26:31;-0.50;99.90
1461;DHT22;724;49.910;12.530;2024-02-26T04:28:57;-0.40;99.90
1461;DHT22;724;49.910;12.530;2024-02-26T04:31:24;-0.30;99.90
1461;DHT22;724;49.910;12.530;2024-02-26T04:33:51;-0.40;99.90
1461;DHT22;724;49.910;12.530;2024-02-26T04:36:18;-0.50;99.90
1461;DHT22;724;49.910;12.530;2024-02-26T04:38:46;-0.60;99.90
1461;DHT22;724;49.910;12.530;2024-02-26T04:41:13;-0.60;99.90
1461;DHT22;724;49.910;12.530;2024-02-26T04:43:40;-0.60;99.90
1461;DHT22;724;49.910;12.530;2024-02-26T04:46:08;-0.50;99.90
1461;DHT22;724;49.910;12.530;2024-02-26T04:48:35;-0.50;99.90
1461;DHT22;724;49.910;12.530;2024-02-26T04:51:02;-0.40;99.90
1461;DHT22;724;49.910;12.530;2024-02-26T04:53:29;-0.40;99.90
1461;DHT22;724;49.910;12.530;2024-02-26T04:55:57;-0.50;99.90
1461;DHT22;724;49.910;12.530;2024-02-26T04:58:23;-0.50;99.90
1461;DHT22;724;49.910;12.530;2024-02-26T05:00:50;-0.50;99.90
1461;DHT22;724;49.910;12.530;2024-02-26T05:03:17;-0.50;99.90
1461;DHT22;724;49.910;12.530;2024-02-26T05:05:44;-0.50;99.90
1461;DHT22;724;49.910;12.530;2024-02-26T05:08:11;-0.40;99.90
1461;DHT22;724;49.910;12.530;2024-02-26T05:10:38;-0.40;99.90
1461;DHT22;724;49.910;12.530;2024-02-26T05:13:08;-0.40;99.90
1461;DHT22;724;49.910;12.530;2024-02-26T05:15:35;-0.40;99.90
1461;DHT22;724;49.910;12.530;2024-02-26T05:18:01;-0.40;99.90
1461;DHT22;724;49.910;12.530;2024-02-26T05:20:29;-0.70;99.90
1461;DHT22;724;49.910;12.530;2024-02-26T05:22:56;-0.70;99.90
1461;DHT22;724;49.910;12.530;2024-02-26T05:25:24;-0.80;99.90
1461;DHT22;724;49.910;12.530;2024-02-26T05:27:52;-0.90;99.90
1461;DHT22;724;49.910;12.530;2024-02-26T05:30:20;-0.90;99.90
1461;DHT22;724;49.910;12.530;2024-02-26T05:32:47;-1.10;99.90
1461;DHT22;724;49.910;12.530;2024-02-26T05:35:14;-1.00;99.90
1461;DHT22;724;49.910;12.530;2024-02-26T05:37:41;-1.00;99.90
1461;DHT22;724;49.910;12.530;2024-02-26T05:40:08;-1.00;99.90
1461;DHT22;724;49.910;12.530;2024-02-26T05:42:35;-1.00;99.90
1461;DHT22;724;49.910;12.530;2024-02-26T05:45:02;-1.00;99.90
1461;DHT22;724;49.910;12.530;2024-02-26T05:47:33;-0.90;99.90
1461;DHT22;724;49.910;12.530;2024-02-26T05:50:00;-1.00;99.90
1461;DHT22;724;49.910;12.530;2024-02-26T05:52:27;-1.00;99.90
1461;DHT22;724;49.910;12.530;2024-02-26T05:54:54;-0.90;99.90
1461;DHT22;724;49.910;12.530;2024-02-26T05:57:21;-1.00;99.90
1461;DHT22;724;49.910;12.530;2024-02-26T05:59:48;-0.90;99.90
1461;DHT22;724;49.910;12.530;2024-02-26T06:02:15;-0.80;99.90
1461;DHT22;724;49.910;12.530;2024-02-26T06:04:43;-0.80;99.90
1461;DHT22;724;49.910;12.530;2024-02-26T06:07:10;-0.70;99.90
1461;DHT22;724;49.910;12.530;2024-02-26T06:09:36;-0.60;99.90
1461;DHT22;724;49.910;12.530;2024-02-26T06:12:03;-0.60;99.90
1461;DHT22;724;49.910;12.530;2024-02-26T06:14:30;-0.50;99.90
1461;DHT22;724;49.910;12.530;2024-02-26T06:16:57;-0.40;99.90
1461;DHT22;724;49.910;12.530;2024-02-26T06:19:24;-0.40;99.90
1461;DHT22;724;49.910;12.530;2024-02-26T06:21:52;-0.30;99.90
1461;DHT22;724;49.910;12.530;2024-02-26T06:24:19;-0.20;99.90
1461;DHT22;724;49.910;12.530;2024-02-26T06:26:47;-0.20;99.90
1461;DHT22;724;49.910;12.530;2024-02-26T06:29:15;-0.10;99.90
1461;DHT22;724;49.910;12.530;2024-02-26T06:31:41;0.00;99.90
1461;DHT22;724;49.910;12.530;2024-02-26T06:34:08;0.00;99.90
1461;DHT22;724;49.910;12.530;2024-02-26T06:36:35;0.00;99.90
1461;DHT22;724;49.910;12.530;2024-02-26T06:39:06;0.10;99.90
1461;DHT22;724;49.910;12.530;2024-02-26T06:41:36;0.10;99.90
1461;DHT22;724;49.910;12.530;2024-02-26T06:44:04;0.10;99.90
1461;DHT22;724;49.910;12.530;2024-02-26T06:46:31;0.20;99.90
1461;DHT22;724;49.910;12.530;2024-02-26T06:48:58;0.20;99.90
1461;DHT22;724;49.910;12.530;2024-02-26T06:51:30;0.20;99.90
1461;DHT22;724;49.910;12.530;2024-02-26T06:54:12;0.30;99.90
1461;DHT22;724;49.910;12.530;2024-02-26T06:56:39;0.30;99.90
1461;DHT22;724;49.910;12.530;2024-02-26T06:59:06;0.30;99.90
1461;DHT22;724;49.910;12.530;2024-02-26T07:01:32;0.30;99.90
1461;DHT22;724;49.910;12.530;2024-02-26T07:03:59;0.40;99.90
1461;DHT22;724;49.910;12.530;2024-02-26T07:06:26;0.40;99.90
1461;DHT22;724;49.910;12.530;2024-02-26T07:08:53;0.40;99.90
1461;DHT22;724;49.910;12.530;2024-02-26T07:11:22;0.40;99.90
1461;DHT22;724;49.910;12.530;2024-02-26T07:13:48;0.40;99.90
1461;DHT22;724;49.910;12.530;2024-02-26T07:16:16;0.50;99.90
1461;DHT22;724;49.910;12.530;2024-02-26T07:18:42;0.50;99.90
1461;DHT22;724;49.910;12.530;2024-02-26T07:21:09;0.60;99.90
1461;DHT22;724;49.910;12.530;2024-02-26T07:23:38;0.70;99.90
1461;DHT22;724;49.910;12.530;2024-02-26T07:26:04;0.70;99.90
1461;DHT22;724;49.910;12.530;2024-02-26T07:28:32;0.70;99.90
1461;DHT22;724;49.910;12.530;2024-02-26T07:30:59;0.80;99.90
1461;DHT22;724;49.910;12.530;2024-02-26T07:33:26;0.80;99.90
1461;DHT22;724;49.910;12.530;2024-02-26T07:35:52;0.80;99.90
1461;DHT22;724;49.910;12.530;2024-02-26T07:38:19;0.80;99.90
1461;DHT22;724;49.910;12.530;2024-02-26T07:40:46;0.80;99.90
1461;DHT22;724;49.910;12.530;2024-02-26T07:43:13;0.80;99.90
1461;DHT22;724;49.910;12.530;2024-02-26T07:45:41;0.90;99.90
1461;DHT22;724;49.910;12.530;2024-02-26T07:48:09;0.90;99.90
1461;DHT22;724;49.910;12.530;2024-02-26T07:50:36;0.90;99.90
1461;DHT22;724;49.910;12.530;2024-02-26T07:53:03;1.00;99.90
1461;DHT22;724;49.910;12.530;2024-02-26T07:55:30;1.10;99.90
1461;DHT22;724;49.910;12.530;2024-02-26T07:57:56;1.10;99.90
1461;DHT22;724;49.910;12.530;2024-02-26T08:00:23;1.10;99.90
1461;DHT22;724;49.910;12.530;2024-02-26T08:02:51;1.10;99.90
1461;DHT22;724;49.910;12.530;2024-02-26T08:05:18;1.20;99.90
1461;DHT22;724;49.910;12.530;2024-02-26T08:07:45;1.20;99.90
1461;DHT22;724;49.910;12.530;2024-02-26T08:10:12;1.30;99.90
1461;DHT22;724;49.910;12.530;2024-02-26T08:12:39;1.40;99.90
1461;DHT22;724;49.910;12.530;2024-02-26T08:15:08;1.40;99.90
1461;DHT22;724;49.910;12.530;2024-02-26T08:17:36;1.50;99.90
1461;DHT22;724;49.910;12.530;2024-02-26T08:20:05;1.60;99.90
1461;DHT22;724;49.910;12.530;2024-02-26T08:22:32;1.50;99.90
1461;DHT22;724;49.910;12.530;2024-02-26T08:24:59;1.50;99.90
1461;DHT22;724;49.910;12.530;2024-02-26T08:27:28;1.50;99.90
1461;DHT22;724;49.910;12.530;2024-02-26T08:29:55;1.50;99.90
1461;DHT22;724;49.910;12.530;2024-02-26T08:32:22;1.60;99.90
1461;DHT22;724;49.910;12.530;2024-02-26T08:34:48;1.50;99.90
1461;DHT22;724;49.910;12.530;2024-02-26T08:37:17;1.70;99.90
1461;DHT22;724;49.910;12.530;2024-02-26T08:39:43;1.80;99.90
1461;DHT22;724;49.910;12.530;2024-02-26T08:42:11;1.90;99.90
1461;DHT22;724;49.910;12.530;2024-02-26T08:44:38;1.80;99.90
1461;DHT22;724;49.910;12.530;2024-02-26T08:47:05;1.80;99.90
1461;DHT22;724;49.910;12.530;2024-02-26T08:49:31;1.80;99.90
1461;DHT22;724;49.910;12.530;2024-02-26T08:51:58;1.70;99.90
1461;DHT22;724;49.910;12.530;2024-02-26T08:54:26;1.70;99.90
1461;DHT22;724;49.910;12.530;2024-02-26T08:56:53;1.70;99.90
1461;DHT22;724;49.910;12.530;2024-02-26T08:59:20;1.70;99.90
1461;DHT22;724;49.910;12.530;2024-02-26T09:01:48;1.60;99.90
1461;DHT22;724;49.910;12.530;2024-02-26T09:04:15;1.60;99.90
1461;DHT22;724;49.910;12.530;2024-02-26T09:06:42;1.60;99.90
1461;DHT22;724;49.910;12.530;2024-02-26T09:09:08;1.70;99.90
1461;DHT22;724;49.910;12.530;2024-02-26T09:11:36;1.70;99.90
1461;DHT22;724;49.910;12.530;2024-02-26T09:14:03;1.70;99.90
1461;DHT22;724;49.910;12.530;2024-02-26T09:16:30;1.70;99.90
1461;DHT22;724;49.910;12.530;2024-02-26T09:18:57;1.70;99.90
1461;DHT22;724;49.910;12.530;2024-02-26T09:21:24;1.70;99.90
1461;DHT22;724;49.910;12.530;2024-02-26T09:23:51;1.60;99.90
1461;DHT22;724;49.910;12.530;2024-02-26T09:26:19;1.70;99.90
1461;DHT22;724;49.910;12.530;2024-02-26T09:28:47;1.80;99.90
1461;DHT22;724;49.910;12.530;2024-02-26T09:31:15;1.80;99.90
1461;DHT22;724;49.910;12.530;2024-02-26T09:33:43;2.00;99.90
1461;DHT22;724;49.910;12.530;2024-02-26T09:36:09;2.00;99.90
1461;DHT22;724;49.910;12.530;2024-02-26T09:38:36;2.00;99.90
1461;DHT22;724;49.910;12.530;2024-02-26T09:41:05;2.00;99.90
1461;DHT22;724;49.910;12.530;2024-02-26T09:43:34;2.20;99.90
1461;DHT22;724;49.910;12.530;2024-02-26T09:46:03;2.30;99.90
1461;DHT22;724;49.910;12.530;2024-02-26T09:48:31;2.10;99.90
1461;DHT22;724;49.910;12.530;2024-02-26T09:50:59;2.30;99.90
1461;DHT22;724;49.910;12.530;2024-02-26T09:53:26;2.30;99.90
1461;DHT22;724;49.910;12.530;2024-02-26T09:55:53;2.30;99.90
1461;DHT22;724;49.910;12.530;2024-02-26T09:58:21;2.20;99.90
1461;DHT22;724;49.910;12.530;2024-02-26T10:00:56;2.50;99.90
1461;DHT22;724;49.910;12.530;2024-02-26T10:03:30;2.60;99.90
1461;DHT22;724;49.910;12.530;2024-02-26T10:05:57;2.60;99.90
1461;DHT22;724;49.910;12.530;2024-02-26T10:08:25;2.50;99.90
1461;DHT22;724;49.910;12.530;2024-02-26T10:10:54;2.60;99.90
1461;DHT22;724;49.910;12.530;2024-02-26T10:13:21;2.50;99.90
1461;DHT22;724;49.910;12.530;2024-02-26T10:15:48;2.60;99.90
1461;DHT22;724;49.910;12.530;2024-02-26T10:18:15;2.80;99.90
1461;DHT22;724;49.910;12.530;2024-02-26T10:20:59;2.70;99.90
1461;DHT22;724;49.910;12.530;2024-02-26T10:23:25;2.70;99.90
1461;DHT22;724;49.910;12.530;2024-02-26T10:25:53;2.80;99.90
1461;DHT22;724;49.910;12.530;2024-02-26T10:28:20;2.90;99.90
1461;DHT22;724;49.910;12.530;2024-02-26T10:30:46;2.90;99.90
1461;DHT22;724;49.910;12.530;2024-02-26T10:33:13;2.70;99.90
1461;DHT22;724;49.910;12.530;2024-02-26T10:35:47;2.70;99.90
1461;DHT22;724;49.910;12.530;2024-02-26T10:38:13;2.90;99.90
1461;DHT22;724;49.910;12.530;2024-02-26T10:40:45;3.10;99.90
1461;DHT22;724;49.910;12.530;2024-02-26T10:43:12;3.10;99.90
1461;DHT22;724;49.910;12.530;2024-02-26T10:45:40;3.10;99.90
1461;DHT22;724;49.910;12.530;2024-02-26T10:48:10;3.20;99.90
1461;DHT22;724;49.910;12.530;2024-02-26T10:50:38;3.40;99.90
1461;DHT22;724;49.910;12.530;2024-02-26T10:53:12;3.40;99.90
1461;DHT22;724;49.910;12.530;2024-02-26T10:55:40;3.40;1.00
1461;DHT22;724;49.910;12.530;2024-02-26T10:58:09;3.50;1.00
1461;DHT22;724;49.910;12.530;2024-02-26T11:00:38;3.40;1.00
1461;DHT22;724;49.910;12.530;2024-02-26T11:03:06;3.30;1.00
1461;DHT22;724;49.910;12.530;2024-02-26T11:05:35;3.10;1.00
1461;DHT22;724;49.910;12.530;2024-02-26T11:08:04;3.30;1.00
1461;DHT22;724;49.910;12.530;2024-02-26T11:10:32;3.50;1.00
1461;DHT22;724;49.910;12.530;2024-02-26T11:13:00;3.50;1.00
1461;DHT22;724;49.910;12.530;2024-02-26T11:15:28;3.40;1.00
1461;DHT22;724;49.910;12.530;2024-02-26T11:17:58;3.50;1.00
1461;DHT22;724;49.910;12.530;2024-02-26T11:20:28;3.60;1.00
1461;DHT22;724;49.910;12.530;2024-02-26T11:22:55;3.50;1.00
1461;DHT22;724;49.910;12.530;2024-02-26T11:25:22;3.60;1.00
1461;DHT22;724;49.910;12.530;2024-02-26T11:27:52;3.70;99.90
1461;DHT22;724;49.910;12.530;2024-02-26T11:30:21;3.70;99.90
1461;DHT22;724;49.910;12.530;2024-02-26T11:32:49;3.50;99.90
1461;DHT22;724;49.910;12.530;2024-02-26T11:35:16;3.70;1.00
1461;DHT22;724;49.910;12.530;2024-02-26T11:37:52;4.00;99.90
1461;DHT22;724;49.910;12.530;2024-02-26T11:40:20;4.00;99.90
1461;DHT22;724;49.910;12.530;2024-02-26T11:42:47;4.10;99.90
1461;DHT22;724;49.910;12.530;2024-02-26T11:45:51;3.90;99.90
1461;DHT22;724;49.910;12.530;2024-02-26T11:48:22;3.90;99.90
1461;DHT22;724;49.910;12.530;2024-02-26T11:50:50;3.80;99.90
1461;DHT22;724;49.910;12.530;2024-02-26T11:53:22;4.10;99.90
1461;DHT22;724;49.910;12.530;2024-02-26T11:56:20;4.00;99.90
1461;DHT22;724;49.910;12.530;2024-02-26T11:58:47;3.80;99.90
1461;DHT22;724;49.910;12.530;2024-02-26T12:01:45;4.10;99.90
1461;DHT22;724;49.910;12.530;2024-02-26T12:04:15;4.00;29.40
1461;DHT22;724;49.910;12.530;2024-02-26T12:06:45;4.10;27.60
1461;DHT22;724;49.910;12.530;2024-02-26T12:09:12;4.20;1.00
1461;DHT22;724;49.910;12.530;2024-02-26T12:11:39;4.20;1.00
1461;DHT22;724;49.910;12.530;2024-02-26T12:14:08;4.20;1.00
1461;DHT22;724;49.910;12.530;2024-02-26T12:16:36;4.30;1.00
1461;DHT22;724;49.910;12.530;2024-02-26T12:19:06;4.50;1.00
1461;DHT22;724;49.910;12.530;2024-02-26T12:21:34;4.50;1.00
1461;DHT22;724;49.910;12.530;2024-02-26T12:24:12;4.50;1.00
1461;DHT22;724;49.910;12.530;2024-02-26T12:26:41;4.70;1.00
1461;DHT22;724;49.910;12.530;2024-02-26T12:29:08;4.60;99.90
1461;DHT22;724;49.910;12.530;2024-02-26T12:31:35;4.70;99.90
1461;DHT22;724;49.910;12.530;2024-02-26T12:34:05;4.70;99.90
1461;DHT22;724;49.910;12.530;2024-02-26T12:36:33;5.00;94.70
1461;DHT22;724;49.910;12.530;2024-02-26T12:39:01;5.30;1.00
1461;DHT22;724;49.910;12.530;2024-02-26T12:41:28;5.20;1.00
1461;DHT22;724;49.910;12.530;2024-02-26T12:43:56;5.50;1.00
1461;DHT22;724;49.910;12.530;2024-02-26T12:46:24;5.60;1.00
1461;DHT22;724;49.910;12.530;2024-02-26T12:48:50;5.40;99.90
1461;DHT22;724;49.910;12.530;2024-02-26T12:51:19;5.90;99.90
1461;DHT22;724;49.910;12.530;2024-02-26T12:53:47;5.30;83.30
1461;DHT22;724;49.910;12.530;2024-02-26T12:56:16;5.30;99.90
1461;DHT22;724;49.910;12.530;2024-02-26T12:58:46;5.60;99.90
1461;DHT22;724;49.910;12.530;2024-02-26T13:01:17;5.40;93.90
1461;DHT22;724;49.910;12.530;2024-02-26T13:03:44;5.20;1.00
1461;DHT22;724;49.910;12.530;2024-02-26T13:06:11;5.10;1.00
1461;DHT22;724;49.910;12.530;2024-02-26T13:08:40;4.80;1.00
1461;DHT22;724;49.910;12.530;2024-02-26T13:11:07;4.60;99.90
1461;DHT22;724;49.910;12.530;2024-02-26T13:13:33;4.90;99.90
1461;DHT22;724;49.910;12.530;2024-02-26T13:16:02;5.10;99.90
1461;DHT22;724;49.910;12.530;2024-02-26T13:18:30;5.20;99.90
1461;DHT22;724;49.910;12.530;2024-02-26T13:21:07;5.10;99.90
1461;DHT22;724;49.910;12.530;2024-02-26T13:23:35;5.10;13.90
1461;DHT22;724;49.910;12.530;2024-02-26T13:26:03;5.00;66.60
1461;DHT22;724;49.910;12.530;2024-02-26T13:28:30;5.00;99.90
1461;DHT22;724;49.910;12.530;2024-02-26T13:30:58;5.10;99.90
1461;DHT22;724;49.910;12.530;2024-02-26T13:33:27;5.30;70.40
1461;DHT22;724;49.910;12.530;2024-02-26T13:35:54;5.30;59.80
1461;DHT22;724;49.910;12.530;2024-02-26T13:38:22;5.30;14.70
1461;DHT22;724;49.910;12.530;2024-02-26T13:40:48;5.40;1.00
1461;DHT22;724;49.910;12.530;2024-02-26T13:43:16;5.40;1.00
1461;DHT22;724;49.910;12.530;2024-02-26T13:45:43;5.30;1.00
1461;DHT22;724;49.910;12.530;2024-02-26T13:48:10;5.20;1.00
1461;DHT22;724;49.910;12.530;2024-02-26T13:50:38;5.20;1.00
1461;DHT22;724;49.910;12.530;2024-02-26T13:53:05;5.20;1.00
1461;DHT22;724;49.910;12.530;2024-02-26T13:55:32;5.30;1.00
1461;DHT22;724;49.910;12.530;2024-02-26T13:57:59;5.50;1.00
1461;DHT22;724;49.910;12.530;2024-02-26T14:00:29;5.40;1.00
1461;DHT22;724;49.910;12.530;2024-02-26T14:02:59;5.10;1.00
1461;DHT22;724;49.910;12.530;2024-02-26T14:05:26;5.10;1.00
1461;DHT22;724;49.910;12.530;2024-02-26T14:07:53;5.30;1.00
1461;DHT22;724;49.910;12.530;2024-02-26T14:10:20;5.40;1.00
1461;DHT22;724;49.910;12.530;2024-02-26T14:12:47;5.50;1.00
1461;DHT22;724;49.910;12.530;2024-02-26T14:15:13;5.70;1.00
1461;DHT22;724;49.910;12.530;2024-02-26T14:17:42;5.70;1.00
1461;DHT22;724;49.910;12.530;2024-02-26T14:20:09;5.80;1.00
1461;DHT22;724;49.910;12.530;2024-02-26T14:22:36;5.50;1.00
1461;DHT22;724;49.910;12.530;2024-02-26T14:25:04;5.60;1.00
1461;DHT22;724;49.910;12.530;2024-02-26T14:27:30;5.40;1.00
1461;DHT22;724;49.910;12.530;2024-02-26T14:29:57;5.50;1.00
1461;DHT22;724;49.910;12.530;2024-02-26T14:32:24;5.40;1.00
1461;DHT22;724;49.910;12.530;2024-02-26T14:34:52;5.70;1.00
1461;DHT22;724;49.910;12.530;2024-02-26T14:37:19;6.00;1.00
1461;DHT22;724;49.910;12.530;2024-02-26T14:39:45;6.00;1.00
1461;DHT22;724;49.910;12.530;2024-02-26T14:42:14;6.00;1.00
1461;DHT22;724;49.910;12.530;2024-02-26T14:44:43;5.60;1.00
1461;DHT22;724;49.910;12.530;2024-02-26T14:47:09;5.50;1.00
1461;DHT22;724;49.910;12.530;2024-02-26T14:49:36;5.80;1.00
1461;DHT22;724;49.910;12.530;2024-02-26T14:52:05;5.60;1.00
1461;DHT22;724;49.910;12.530;2024-02-26T14:54:32;5.80;1.00
1461;DHT22;724;49.910;12.530;2024-02-26T14:57:02;5.70;1.00
1461;DHT22;724;49.910;12.530;2024-02-26T14:59:30;5.40;1.00
1461;DHT22;724;49.910;12.530;2024-02-26T15:01:57;5.20;1.00
1461;DHT22;724;49.910;12.530;2024-02-26T15:04:25;5.20;1.00
1461;DHT22;724;49.910;12.530;2024-02-26T15:06:52;5.20;1.00
1461;DHT22;724;49.910;12.530;2024-02-26T15:09:20;5.30;1.00
1461;DHT22;724;49.910;12.530;2024-02-26T15:11:47;5.20;1.00
1461;DHT22;724;49.910;12.530;2024-02-26T15:14:14;5.20;1.00
1461;DHT22;724;49.910;12.530;2024-02-26T15:16:40;5.30;1.00
1461;DHT22;724;49.910;12.530;2024-02-26T15:19:07;5.20;1.00
1461;DHT22;724;49.910;12.530;2024-02-26T15:21:34;5.20;1.00
1461;DHT22;724;49.910;12.530;2024-02-26T15:24:02;5.30;1.00
1461;DHT22;724;49.910;12.530;2024-02-26T15:26:31;5.20;1.00
1461;DHT22;724;49.910;12.530;2024-02-26T15:28:57;5.30;1.00
1461;DHT22;724;49.910;12.530;2024-02-26T15:31:24;5.10;1.00
1461;DHT22;724;49.910;12.530;2024-02-26T15:33:51;5.10;1.00
1461;DHT22;724;49.910;12.530;2024-02-26T15:36:18;5.00;1.00
1461;DHT22;724;49.910;12.530;2024-02-26T15:38:45;5.00;1.00
1461;DHT22;724;49.910;12.530;2024-02-26T15:41:12;5.00;1.00
1461;DHT22;724;49.910;12.530;2024-02-26T15:43:41;4.70;1.00
1461;DHT22;724;49.910;12.530;2024-02-26T15:46:08;4.70;1.00
1461;DHT22;724;49.910;12.530;2024-02-26T15:48:36;4.60;99.90
1461;DHT22;724;49.910;12.530;2024-02-26T15:51:04;4.70;99.90
1461;DHT22;724;49.910;12.530;2024-02-26T15:53:30;4.80;99.90
1461;DHT22;724;49.910;12.530;2024-02-26T15:55:57;4.70;99.90
1461;DHT22;724;49.910;12.530;2024-02-26T15:58:24;4.70;99.90
1461;DHT22;724;49.910;12.530;2024-02-26T16:00:52;4.50;99.90
1461;DHT22;724;49.910;12.530;2024-02-26T16:03:19;4.40;99.90
1461;DHT22;724;49.910;12.530;2024-02-26T16:05:46;4.30;99.90
1461;DHT22;724;49.910;12.530;2024-02-26T16:08:17;4.30;1.00
1461;DHT22;724;49.910;12.530;2024-02-26T16:10:46;4.20;1.00
1461;DHT22;724;49.910;12.530;2024-02-26T16:13:13;4.30;1.00
1461;DHT22;724;49.910;12.530;2024-02-26T16:15:43;4.00;1.00
1461;DHT22;724;49.910;12.530;2024-02-26T16:18:12;4.00;1.00
1461;DHT22;724;49.910;12.530;2024-02-26T16:20:39;3.90;89.00